createdAt,value
2018-09-06T11:28:34.015Z,24.90
2018-09-06T11:31:02.598Z,25.10
2018-09-06T11:33:30.621Z,25.30
2018-09-06T11:35:59.559Z,25.60
2018-09-06T11:38:27.544Z,25.70
2018-09-06T11:40:56.628Z,25.70
2018-09-06T11:43:25.271Z,25.80
2018-09-06T11:45:53.224Z,25.90
2018-09-06T11:48:22.179Z,26.00
2018-09-06T11:50:50.641Z,25.90
2018-09-06T11:53:19.111Z,26.00
2018-09-06T11:55:48.218Z,26.10
2018-09-06T11:58:16.275Z,26.00
2018-09-06T12:00:45.901Z,26.00
2018-09-06T12:03:13.867Z,26.10
2018-09-06T12:05:42.324Z,26.20
2018-09-06T12:08:11.469Z,26.10
2018-09-06T12:10:39.460Z,25.90
2018-09-06T12:13:09.432Z,25.70
2018-09-06T12:15:37.415Z,25.70
2018-09-06T12:18:05.365Z,25.90
2018-09-06T12:20:33.326Z,26.00
2018-09-06T12:23:01.420Z,25.90
2018-09-06T12:25:30.054Z,25.90
2018-09-06T12:27:58.495Z,25.90
2018-09-06T12:30:26.641Z,25.90
2018-09-06T12:32:54.934Z,26.00
2018-09-06T12:35:23.043Z,26.00
2018-09-06T12:37:51.613Z,26.30
2018-09-06T12:40:19.561Z,26.60
2018-09-06T12:42:49.179Z,26.80
2018-09-06T12:45:17.192Z,27.00
2018-09-06T12:47:45.182Z,27.30
2018-09-06T12:50:13.801Z,27.60
2018-09-06T12:52:42.422Z,27.90
2018-09-06T12:55:11.482Z,28.20
2018-09-06T12:57:40.881Z,28.40
2018-09-06T13:00:08.950Z,28.30
2018-09-06T13:02:37.774Z,27.90
2018-09-06T13:05:06.238Z,27.60
2018-09-06T13:07:34.290Z,27.40
2018-09-06T13:10:03.285Z,27.30
2018-09-06T13:12:31.235Z,27.20
2018-09-06T13:14:59.260Z,27.20
2018-09-06T13:17:27.376Z,27.20
2018-09-06T13:19:55.426Z,27.00
2018-09-06T13:22:23.430Z,27.10
2018-09-06T13:24:52.096Z,27.20
2018-09-06T13:27:20.131Z,27.10
2018-09-06T13:29:48.025Z,27.10
2018-09-06T13:32:16.171Z,27.10
2018-09-06T13:34:44.108Z,27.10
2018-09-06T13:37:12.084Z,27.10
2018-09-06T13:39:42.276Z,27.10
2018-09-06T13:42:11.179Z,26.90
2018-09-06T13:44:39.315Z,26.70
2018-09-06T13:47:07.426Z,26.80
2018-09-06T13:49:35.348Z,26.80
2018-09-06T13:52:03.528Z,26.70
2018-09-06T13:54:31.409Z,26.50
2018-09-06T13:56:59.400Z,26.20
2018-09-06T13:59:27.432Z,26.20
2018-09-06T14:01:56.391Z,26.20
2018-09-06T14:04:24.317Z,26.20
2018-09-06T14:06:52.903Z,26.20
2018-09-06T14:09:22.164Z,26.20
2018-09-06T14:11:50.270Z,26.20
2018-09-06T14:14:18.987Z,26.30
2018-09-06T14:16:47.546Z,26.30
2018-09-06T14:19:16.065Z,26.20
2018-09-06T14:21:44.017Z,26.20
2018-09-06T14:24:12.312Z,26.20
2018-09-06T14:26:42.717Z,26.20
2018-09-06T14:29:10.662Z,26.20
2018-09-06T14:31:38.607Z,26.20
2018-09-06T14:34:06.505Z,26.20
2018-09-06T14:36:35.241Z,26.20
2018-09-06T14:39:04.138Z,26.20
2018-09-06T14:41:32.380Z,26.10
2018-09-06T14:44:00.389Z,26.00
2018-09-06T14:46:28.287Z,26.00
2018-09-06T14:48:56.281Z,25.90
2018-09-06T14:51:24.340Z,25.90
2018-09-06T14:53:52.251Z,25.70
2018-09-06T14:56:20.322Z,25.60
2018-09-06T14:58:48.524Z,25.60
2018-09-06T15:01:17.324Z,25.50
2018-09-06T15:03:45.531Z,25.50
2018-09-06T15:06:13.627Z,25.60
2018-09-06T15:08:41.590Z,25.70
2018-09-06T15:11:09.607Z,25.70
2018-09-06T15:13:38.375Z,25.90
2018-09-06T15:16:06.991Z,25.80
2018-09-06T15:18:35.052Z,25.80
2018-09-06T15:21:02.965Z,25.70
2018-09-06T15:23:30.903Z,25.60
2018-09-06T15:25:58.843Z,25.70
2018-09-06T15:28:27.995Z,25.70
2018-09-06T15:30:56.533Z,25.80
2018-09-06T15:33:25.083Z,25.70
2018-09-06T15:35:53.762Z,25.80
2018-09-06T15:38:21.689Z,25.70
2018-09-06T15:40:49.630Z,25.80
2018-09-06T15:43:17.771Z,25.80
2018-09-06T15:45:45.945Z,25.70
2018-09-06T15:48:13.869Z,25.70
2018-09-06T15:50:42.063Z,25.60
2018-09-06T15:53:10.331Z,25.70
2018-09-06T15:55:38.894Z,25.70
2018-09-06T15:58:07.441Z,25.80
2018-09-06T16:00:36.063Z,25.70
2018-09-06T16:03:04.722Z,25.70
2018-09-06T16:05:33.487Z,25.70
2018-09-06T16:08:01.468Z,25.80
2018-09-06T16:10:30.100Z,25.80
2018-09-06T16:12:58.713Z,25.70
2018-09-06T16:15:26.640Z,25.70
2018-09-06T16:17:55.532Z,25.60
2018-09-06T16:20:23.481Z,25.60
2018-09-06T16:22:52.622Z,25.50
2018-09-06T16:25:20.633Z,25.30
2018-09-06T16:27:49.718Z,25.30
2018-09-06T16:30:18.002Z,25.20
2018-09-06T16:32:45.909Z,25.10
2018-09-06T16:35:14.733Z,24.90
2018-09-06T16:37:43.170Z,24.80
2018-09-06T16:40:11.135Z,24.80
2018-09-06T16:42:39.162Z,24.70
2018-09-06T16:45:08.278Z,24.70
2018-09-06T16:47:36.210Z,24.70
2018-09-06T16:50:05.610Z,24.60
2018-09-06T16:52:33.895Z,24.60
2018-09-06T16:55:01.765Z,24.70
2018-09-06T16:57:30.478Z,24.60
2018-09-06T16:59:58.426Z,24.60
2018-09-06T17:02:26.930Z,24.40
2018-09-06T17:04:56.033Z,24.30
2018-09-06T17:07:24.499Z,24.30
2018-09-06T17:09:53.445Z,24.00
2018-09-06T17:12:22.174Z,24.00
2018-09-06T17:14:50.346Z,24.00
2018-09-06T17:17:18.782Z,23.80
2018-09-06T17:19:50.143Z,23.60
2018-09-06T17:22:19.311Z,23.50
2018-09-06T17:24:47.965Z,23.40
2018-09-06T17:27:15.885Z,23.20
2018-09-06T17:29:44.695Z,23.00
2018-09-06T17:32:13.459Z,22.90
2018-09-06T17:34:42.725Z,22.70
2018-09-06T17:37:11.287Z,22.60
2018-09-06T17:39:39.405Z,22.40
2018-09-06T17:42:07.534Z,22.30
2018-09-06T17:44:36.110Z,22.20
2018-09-06T17:47:04.663Z,22.20
2018-09-06T17:49:32.663Z,22.10
2018-09-06T17:52:01.711Z,22.00
2018-09-06T17:54:29.709Z,21.90
2018-09-06T17:56:57.655Z,21.90
2018-09-06T17:59:26.249Z,21.80
2018-09-06T18:01:55.572Z,21.70
2018-09-06T18:04:23.872Z,21.60
2018-09-06T18:06:51.884Z,21.50
2018-09-06T18:09:19.937Z,21.40
2018-09-06T18:11:50.703Z,21.50
2018-09-06T18:14:21.232Z,21.50
2018-09-06T18:16:51.740Z,21.50
2018-09-06T18:19:19.678Z,21.50
2018-09-06T18:21:48.231Z,21.60
2018-09-06T18:24:17.135Z,21.60
2018-09-06T18:26:45.117Z,21.50
2018-09-06T18:29:15.080Z,21.50
2018-09-06T18:31:44.318Z,21.50
2018-09-06T18:34:13.654Z,21.40
2018-09-06T18:36:42.167Z,21.20
2018-09-06T18:39:11.102Z,20.90
2018-09-06T18:41:40.620Z,20.90
2018-09-06T18:44:08.851Z,20.70
2018-09-06T18:46:36.847Z,20.60
2018-09-06T18:49:05.644Z,20.40
2018-09-06T18:51:34.127Z,20.40
2018-09-06T18:54:03.097Z,20.30
2018-09-06T18:56:32.180Z,20.30
2018-09-06T18:59:00.167Z,20.20
2018-09-06T19:01:28.257Z,20.20
2018-09-06T19:03:57.613Z,20.20
2018-09-06T19:06:25.575Z,20.10
2018-09-06T19:08:53.910Z,20.10
2018-09-06T19:11:23.125Z,20.00
2018-09-06T19:13:51.107Z,20.00
2018-09-06T19:16:22.216Z,20.10
2018-09-06T19:18:50.156Z,20.10
2018-09-06T19:21:19.102Z,20.00
2018-09-06T19:23:47.284Z,20.00
2018-09-06T19:26:16.741Z,19.90
2018-09-06T19:28:45.723Z,19.80
2018-09-06T19:31:16.093Z,19.70
2018-09-06T19:33:45.786Z,19.60
2018-09-06T19:36:15.720Z,19.40
2018-09-06T19:38:44.241Z,19.30
2018-09-06T19:41:14.760Z,19.30
2018-09-06T19:43:44.062Z,19.20
2018-09-06T19:46:12.646Z,19.10
2018-09-06T19:48:41.122Z,19.10
2018-09-06T19:51:10.360Z,19.10
2018-09-06T19:53:38.703Z,19.00
2018-09-06T19:56:07.587Z,18.90
2018-09-06T19:58:36.299Z,18.90
2018-09-06T20:01:05.795Z,19.00
2018-09-06T20:03:36.904Z,18.90
2018-09-06T20:06:05.978Z,18.80
2018-09-06T20:08:35.432Z,18.60
2018-09-06T20:11:03.474Z,18.50
2018-09-06T20:13:31.960Z,18.30
2018-09-06T20:16:01.464Z,18.30
2018-09-06T20:18:30.655Z,18.20
2018-09-06T20:20:59.546Z,18.10
2018-09-06T20:23:28.152Z,18.30
2018-09-06T20:25:56.227Z,18.30
2018-09-06T20:28:24.299Z,18.20
2018-09-06T20:30:53.588Z,18.30
2018-09-06T20:33:23.224Z,18.30
2018-09-06T20:35:53.034Z,18.30
2018-09-06T20:38:21.594Z,18.20
2018-09-06T20:40:50.304Z,18.10
2018-09-06T20:43:19.453Z,18.00
2018-09-06T20:45:49.506Z,18.00
2018-09-06T20:48:18.159Z,18.00
2018-09-06T20:50:48.403Z,18.00
2018-09-06T20:53:17.807Z,18.10
2018-09-06T20:55:47.453Z,18.00
2018-09-06T20:58:15.653Z,18.00
2018-09-06T21:00:44.324Z,18.00
2018-09-06T21:03:15.211Z,17.80
2018-09-06T21:05:45.663Z,17.60
2018-09-06T21:08:14.274Z,17.60
2018-09-06T21:10:42.997Z,17.40
2018-09-06T21:13:12.552Z,17.30
2018-09-06T21:15:41.403Z,17.30
2018-09-06T21:18:10.571Z,17.30
2018-09-06T21:20:41.354Z,17.30
2018-09-06T21:23:10.529Z,17.30
2018-09-06T21:25:42.196Z,17.30
2018-09-06T21:28:11.291Z,17.30
2018-09-06T21:30:39.332Z,17.20
2018-09-06T21:33:07.916Z,17.20
2018-09-06T21:35:36.190Z,17.10
2018-09-06T21:38:04.600Z,17.00
2018-09-06T21:40:32.804Z,17.00
2018-09-06T21:43:01.461Z,17.00
2018-09-06T21:45:29.795Z,17.00
2018-09-06T21:48:00.028Z,16.90
2018-09-06T21:50:30.374Z,16.90
2018-09-06T21:52:59.607Z,16.90
2018-09-06T21:55:27.922Z,17.00
2018-09-06T21:57:56.143Z,16.90
2018-09-06T22:00:24.816Z,17.00
2018-09-06T22:02:59.301Z,16.90
2018-09-06T22:05:27.885Z,16.90
2018-09-06T22:07:57.054Z,16.90
2018-09-06T22:10:26.353Z,16.80
2018-09-06T22:12:54.827Z,16.70
2018-09-06T22:15:23.224Z,16.60
2018-09-06T22:17:51.711Z,16.60
2018-09-06T22:20:20.603Z,16.60
2018-09-06T22:22:48.931Z,16.50
2018-09-06T22:25:17.228Z,16.50
2018-09-06T22:27:45.429Z,16.40
2018-09-06T22:30:13.708Z,16.30
2018-09-06T22:32:41.994Z,16.30
2018-09-06T22:35:10.239Z,16.30
2018-09-06T22:37:38.662Z,16.30
2018-09-06T22:40:09.363Z,16.20
2018-09-06T22:42:44.694Z,16.20
2018-09-06T22:45:19.515Z,16.20
2018-09-06T22:47:48.062Z,16.20
2018-09-06T22:50:19.356Z,16.20
2018-09-06T22:52:49.157Z,16.10
2018-09-06T22:55:17.677Z,16.20
2018-09-06T22:57:45.847Z,16.10
2018-09-06T23:00:15.203Z,16.10
2018-09-06T23:02:49.118Z,16.10
2018-09-06T23:05:17.439Z,16.10
2018-09-06T23:07:45.614Z,16.20
2018-09-06T23:10:13.776Z,16.10
2018-09-06T23:12:42.132Z,16.10
2018-09-06T23:15:10.320Z,16.00
2018-09-06T23:17:38.828Z,16.00
2018-09-06T23:20:07.163Z,15.90
2018-09-06T23:22:38.235Z,15.90
2018-09-06T23:25:07.913Z,16.00
2018-09-06T23:27:36.134Z,16.00
2018-09-06T23:30:05.232Z,15.90
2018-09-06T23:32:33.507Z,15.80
2018-09-06T23:35:02.070Z,15.70
2018-09-06T23:37:30.356Z,15.70
2018-09-06T23:39:58.512Z,15.70
2018-09-06T23:42:26.895Z,15.60
2018-09-06T23:44:56.264Z,15.60
2018-09-06T23:47:24.483Z,15.50
2018-09-06T23:49:52.948Z,15.50
2018-09-06T23:52:21.566Z,15.50
2018-09-06T23:54:50.012Z,15.50
2018-09-06T23:57:18.281Z,15.60
2018-09-06T23:59:46.461Z,15.50
